Time;durP1;ratioP1;P1;durP2;ratioP2;P2;SDS_P1;SDS_P2;PMS_P1;PMS_P2;Temp;Humidity;BMP_temperature;BMP_pressure;BME280_temperature;BME280_humidity;BME280_pressure;Samples;Min_cycle;Max_cycle;Signal;HPM_P1;HPM_P2
2021/12/11 00:01:53;;;;;;;44.20;21.08;;;-1.20;99.90;;;;;;6181443;23;20095;-83
2021/12/11 00:04:28;;;;;;;39.38;20.80;;;-1.20;99.90;;;;;;6180241;23;20013;-83
2021/12/11 00:06:56;;;;;;;37.30;20.17;;;-1.20;99.90;;;;;;6155668;23;20028;-83
2021/12/11 00:09:48;;;;;;;40.10;20.50;;;-1.20;99.90;;;;;;6180724;23;20025;-83
2021/12/11 00:12:27;;;;;;;38.05;19.52;;;-1.20;99.90;;;;;;6156407;23;20024;-83
2021/12/11 00:15:00;;;;;;;39.08;21.02;;;-1.20;99.90;;;;;;6179213;23;20045;-82
2021/12/11 00:17:30;;;;;;;38.53;20.00;;;-1.20;99.90;;;;;;6181540;23;20466;-83
2021/12/11 00:19:55;;;;;;;36.60;20.08;;;-1.20;99.90;;;;;;6182136;23;20013;-83
2021/12/11 00:22:24;;;;;;;35.57;20.30;;;-1.10;99.90;;;;;;6182450;23;20443;-82
2021/12/11 00:24:51;;;;;;;30.42;17.40;;;-1.20;99.90;;;;;;6182209;23;20012;-82
2021/12/11 00:27:24;;;;;;;36.97;21.23;;;-1.20;99.90;;;;;;6157021;23;20100;-82
2021/12/11 00:29:51;;;;;;;36.63;19.67;;;-1.20;99.90;;;;;;6183090;23;20107;-82
2021/12/11 00:32:25;;;;;;;37.50;19.77;;;-1.20;99.90;;;;;;6159009;23;20706;-82
2021/12/11 00:34:53;;;;;;;39.10;20.45;;;-1.20;99.90;;;;;;6183095;23;20009;-82
2021/12/11 00:37:22;;;;;;;34.90;19.65;;;-1.20;99.90;;;;;;6184172;23;20013;-82
2021/12/11 00:40:00;;;;;;;37.20;19.38;;;-1.20;99.90;;;;;;6159819;23;20008;-82
2021/12/11 00:42:33;;;;;;;30.98;18.63;;;-1.30;99.90;;;;;;6157143;23;20051;-83
2021/12/11 00:45:07;;;;;;;37.70;19.95;;;-1.30;99.90;;;;;;6132971;23;20036;-81
2021/12/11 00:47:33;;;;;;;38.70;20.17;;;-1.20;99.90;;;;;;6183132;23;20583;-82
2021/12/11 00:50:09;;;;;;;33.33;19.50;;;-1.30;99.90;;;;;;6158212;23;20017;-82
2021/12/11 00:52:42;;;;;;;34.65;19.33;;;-1.40;99.90;;;;;;6182613;23;20069;-82
2021/12/11 00:55:30;;;;;;;33.45;17.92;;;-1.40;99.90;;;;;;6157891;23;20020;-82
2021/12/11 00:58:20;;;;;;;36.85;19.63;;;-1.40;99.90;;;;;;6181900;23;20071;-82
2021/12/11 01:00:58;;;;;;;38.05;19.92;;;-1.50;99.90;;;;;;6158725;23;20028;-82
2021/12/11 01:03:29;;;;;;;40.88;21.17;;;-1.50;99.90;;;;;;6158221;23;20045;-82
2021/12/11 01:05:56;;;;;;;34.45;18.70;;;-1.60;99.90;;;;;;6157351;23;20099;-82
2021/12/11 01:08:36;;;;;;;37.65;19.17;;;-1.60;99.90;;;;;;6182578;23;20047;-82
2021/12/11 01:11:15;;;;;;;35.40;19.27;;;-1.70;99.90;;;;;;6158078;23;20017;-82
2021/12/11 01:13:47;;;;;;;33.75;17.85;;;-1.70;99.90;;;;;;6182607;23;20049;-82
2021/12/11 01:16:15;;;;;;;35.67;19.20;;;-1.80;99.90;;;;;;6157204;23;20021;-82
2021/12/11 01:18:47;;;;;;;47.75;21.67;;;-1.80;99.90;;;;;;6134110;23;20013;-82
2021/12/11 01:21:44;;;;;;;38.72;20.95;;;-1.80;99.90;;;;;;6183689;23;20338;-82
2021/12/11 01:24:30;;;;;;;41.65;20.30;;;-1.80;99.90;;;;;;6182615;23;20082;-82
2021/12/11 01:26:57;;;;;;;;;;;-1.80;99.90;;;;;;6157723;23;20013;-82
2021/12/11 01:29:24;;;;;;;38.17;19.00;;;-1.90;99.90;;;;;;6182151;23;19916;-82
2021/12/11 01:31:52;;;;;;;38.90;18.15;;;-1.90;99.90;;;;;;6132036;23;20071;-82
2021/12/11 01:34:19;;;;;;;37.35;18.50;;;-1.90;99.90;;;;;;6181886;23;20482;-82
2021/12/11 01:36:45;;;;;;;40.40;20.75;;;-1.90;99.90;;;;;;6157030;23;20048;-82
2021/12/11 01:39:18;;;;;;;37.88;19.85;;;-2.00;99.90;;;;;;6182161;23;20116;-82
2021/12/11 01:41:46;;;;;;;42.58;19.27;;;-1.90;99.90;;;;;;6158339;23;20100;-82
2021/12/11 01:44:15;;;;;;;39.15;18.73;;;-2.00;99.90;;;;;;6157826;23;20466;-82
2021/12/11 01:46:42;;;;;;;38.00;18.85;;;-2.00;99.90;;;;;;6181809;23;20619;-82
2021/12/11 01:49:20;;;;;;;41.33;21.20;;;-2.00;99.90;;;;;;6132701;23;20446;-81
2021/12/11 01:52:02;;;;;;;34.50;19.60;;;-2.00;99.90;;;;;;6181733;23;20025;-81
2021/12/11 01:54:37;;;;;;;38.60;20.50;;;-2.00;99.90;;;;;;6181040;23;20027;-81
2021/12/11 01:57:11;;;;;;;42.03;20.67;;;-2.00;99.90;;;;;;6156437;23;20009;-81
2021/12/11 01:59:40;;;;;;;40.53;20.92;;;-2.00;99.90;;;;;;6180889;23;20017;-81
2021/12/11 02:02:25;;;;;;;40.10;20.27;;;-2.10;99.90;;;;;;6155997;23;20088;-81
2021/12/11 02:04:53;;;;;;;34.75;18.38;;;-2.10;99.90;;;;;;6156153;23;20015;-81
2021/12/11 02:07:23;;;;;;;38.00;19.60;;;-2.10;99.90;;;;;;6156579;23;20013;-81
2021/12/11 02:10:00;;;;;;;47.38;21.17;;;-2.10;99.90;;;;;;6180952;23;20112;-81
2021/12/11 02:12:34;;;;;;;43.67;20.38;;;-2.10;99.90;;;;;;6159371;23;20013;-81
2021/12/11 02:15:02;;;;;;;45.53;20.90;;;-2.10;99.90;;;;;;6180780;23;20013;-81
2021/12/11 02:17:34;;;;;;;37.10;19.02;;;-2.10;99.90;;;;;;6180818;23;20013;-81
2021/12/11 02:20:05;;;;;;;37.75;19.02;;;-2.10;99.90;;;;;;6156902;23;20318;-81
2021/12/11 02:22:38;;;;;;;37.85;18.88;;;-2.20;99.90;;;;;;6156647;23;20088;-81
2021/12/11 02:25:09;;;;;;;35.80;18.60;;;-2.10;99.90;;;;;;6180836;23;20017;-81
2021/12/11 02:27:46;;;;;;;42.97;20.70;;;-2.20;99.90;;;;;;6182430;23;20017;-81
2021/12/11 02:30:36;;;;;;;41.65;20.98;;;-2.20;99.90;;;;;;6182386;23;20016;-81
2021/12/11 02:33:13;;;;;;;41.30;20.25;;;-2.20;99.90;;;;;;6181211;23;20020;-81
2021/12/11 02:35:51;;;;;;;37.28;18.08;;;-2.20;99.90;;;;;;6155217;23;20316;-82
2021/12/11 02:38:32;;;;;;;44.72;20.92;;;-2.30;99.90;;;;;;6180559;23;20096;-82
2021/12/11 02:41:20;;;;;;;33.80;17.92;;;-2.30;99.90;;;;;;6181328;23;20013;-82
2021/12/11 02:43:54;;;;;;;36.15;19.25;;;-2.30;99.90;;;;;;6180429;23;20345;-82
2021/12/11 02:46:33;;;;;;;34.47;17.55;;;-2.30;99.90;;;;;;6155785;23;20070;-82
2021/12/11 02:49:29;;;;;;;35.95;18.33;;;-2.40;99.90;;;;;;6180955;23;20023;-81
2021/12/11 02:52:05;;;;;;;33.97;17.20;;;-2.40;99.90;;;;;;6155694;23;20023;-81
2021/12/11 02:54:52;;;;;;;33.70;17.42;;;-2.50;99.90;;;;;;6180978;23;20024;-81
2021/12/11 02:57:27;;;;;;;33.38;17.58;;;-2.50;99.90;;;;;;6181250;23;20048;-81
2021/12/11 02:59:53;;;;;;;30.77;17.83;;;-2.50;99.90;;;;;;6180489;23;20024;-81
2021/12/11 03:02:26;;;;;;;33.08;18.05;;;-2.60;99.90;;;;;;6131816;23;20445;-81
2021/12/11 03:04:56;;;;;;;36.20;16.70;;;-2.60;99.90;;;;;;6180151;23;20017;-81
2021/12/11 03:07:34;;;;;;;34.55;17.95;;;-2.60;99.90;;;;;;6181377;23;20013;-81
2021/12/11 03:10:01;;;;;;;33.80;17.25;;;-2.60;99.90;;;;;;6180763;23;20021;-81
2021/12/11 03:12:27;;;;;;;35.03;18.02;;;-2.70;99.90;;;;;;6181013;23;20020;-81
2021/12/11 03:14:53;;;;;;;32.42;16.88;;;-2.70;99.90;;;;;;6155084;23;20009;-81
2021/12/11 03:17:21;;;;;;;34.22;18.05;;;-2.70;99.90;;;;;;6182066;23;20020;-81
2021/12/11 03:19:48;;;;;;;29.25;16.35;;;-2.70;99.90;;;;;;6154017;23;20028;-82
2021/12/11 03:22:30;;;;;;;36.63;17.88;;;-2.70;99.90;;;;;;6153258;23;20009;-82
2021/12/11 03:24:57;;;;;;;32.13;17.60;;;-2.70;99.90;;;;;;6177848;23;20012;-81
2021/12/11 03:27:24;;;;;;;36.83;18.88;;;-2.70;99.90;;;;;;6181433;23;20017;-81
2021/12/11 03:29:50;;;;;;;38.20;19.40;;;-2.70;99.90;;;;;;6155942;23;20020;-81
2021/12/11 03:32:17;;;;;;;46.95;22.50;;;-2.70;99.90;;;;;;6155928;23;20036;-81
2021/12/11 03:34:44;;;;;;;46.25;22.80;;;-2.70;99.90;;;;;;6179329;23;20349;-80
2021/12/11 03:37:12;;;;;;;47.83;23.73;;;-2.60;99.90;;;;;;6131582;23;20013;-82
2021/12/11 03:39:42;;;;;;;50.80;23.00;;;-2.60;99.90;;;;;;6181390;23;20235;-82
2021/12/11 03:42:13;;;;;;;43.20;22.13;;;-2.60;99.90;;;;;;6156425;23;20013;-82
2021/12/11 03:44:40;;;;;;;46.60;22.17;;;-2.50;99.90;;;;;;6180044;23;20083;-81
2021/12/11 03:47:12;;;;;;;38.13;19.88;;;-2.50;99.90;;;;;;6180684;23;20123;-81
2021/12/11 03:49:38;;;;;;;42.30;20.48;;;-2.40;99.90;;;;;;6181418;23;20060;-80
2021/12/11 03:52:07;;;;;;;42.83;21.17;;;-2.50;99.90;;;;;;6180497;23;20389;-80
2021/12/11 03:54:36;;;;;;;37.95;20.27;;;-2.50;99.90;;;;;;6180011;23;20044;-80
2021/12/11 03:57:04;;;;;;;40.35;19.98;;;-2.50;99.90;;;;;;6182098;23;20013;-81
2021/12/11 03:59:31;;;;;;;41.08;22.38;;;-2.50;99.90;;;;;;6182037;23;20345;-81
2021/12/11 04:02:01;;;;;;;39.65;21.38;;;-2.50;99.90;;;;;;6131606;23;20021;-81
2021/12/11 04:04:32;;;;;;;37.13;20.15;;;-2.60;99.90;;;;;;6180485;23;20076;-81
2021/12/11 04:07:00;;;;;;;40.97;19.92;;;-2.60;99.90;;;;;;6182388;23;20024;-80
2021/12/11 04:09:27;;;;;;;35.65;19.25;;;-2.60;99.90;;;;;;6158024;23;20017;-81
2021/12/11 04:11:54;;;;;;;37.65;19.48;;;-2.70;99.90;;;;;;6181459;23;20017;-80
2021/12/11 04:14:24;;;;;;;39.08;19.65;;;-2.70;99.90;;;;;;6133618;23;20063;-80
2021/12/11 04:16:51;;;;;;;35.17;19.80;;;-2.70;99.90;;;;;;6182604;23;20020;-80
2021/12/11 04:19:18;;;;;;;38.10;20.50;;;-2.70;99.90;;;;;;6183079;23;20117;-80
2021/12/11 04:21:46;;;;;;;43.53;21.35;;;-2.70;99.90;;;;;;6133897;23;20009;-80
2021/12/11 04:24:19;;;;;;;38.05;20.10;;;-2.70;99.90;;;;;;6183692;23;20021;-80
2021/12/11 04:26:45;;;;;;;42.35;20.52;;;-2.70;99.90;;;;;;6182620;23;20025;-80
2021/12/11 04:29:12;;;;;;;45.25;21.80;;;-2.70;99.90;;;;;;6133464;23;20072;-80
2021/12/11 04:31:42;;;;;;;40.35;20.40;;;-2.70;99.90;;;;;;6157854;23;20013;-80
2021/12/11 04:34:09;;;;;;;45.88;21.40;;;-2.70;99.90;;;;;;6182569;23;20091;-80
2021/12/11 04:36:43;;;;;;;42.65;21.35;;;-2.70;99.90;;;;;;6132270;23;20095;-80
2021/12/11 04:39:12;;;;;;;44.60;20.63;;;-2.70;99.90;;;;;;6157463;23;20055;-80
2021/12/11 04:41:49;;;;;;;40.53;20.65;;;-2.70;99.90;;;;;;6181687;23;20009;-80
2021/12/11 04:44:27;;;;;;;41.90;20.23;;;-2.80;99.90;;;;;;6182679;23;20378;-80
2021/12/11 04:46:53;;;;;;;45.22;21.63;;;-2.80;99.90;;;;;;6181684;23;20017;-80
2021/12/11 04:49:34;;;;;;;40.92;21.27;;;-2.80;99.90;;;;;;6183195;23;20013;-80
2021/12/11 04:52:10;;;;;;;46.28;21.80;;;-2.80;99.90;;;;;;6135722;23;20072;-80
2021/12/11 05:00:16;;;;;;;51.60;23.35;;;-2.90;99.90;;;;;;6161297;23;20349;-80
2021/12/11 05:10:53;;;;;;;38.65;20.65;;;-2.80;99.90;;;;;;6160283;23;20462;-80
2021/12/11 05:13:21;;;;;;;37.75;19.85;;;-2.80;99.90;;;;;;6160157;23;20013;-80
2021/12/11 05:15:50;;;;;;;39.25;20.73;;;-2.80;99.90;;;;;;6182349;23;20040;-80
2021/12/11 05:18:20;;;;;;;38.92;20.02;;;-2.80;99.90;;;;;;6182998;23;20009;-80
2021/12/11 05:20:50;;;;;;;36.53;19.83;;;-2.80;99.90;;;;;;6183018;23;20345;-80
2021/12/11 05:23:16;;;;;;;39.08;20.38;;;-2.90;99.90;;;;;;6182743;23;20024;-80
2021/12/11 05:25:43;;;;;;;43.13;20.27;;;-2.90;99.90;;;;;;6181991;23;20013;-80
2021/12/11 05:28:09;;;;;;;38.47;20.20;;;-2.90;99.90;;;;;;6157779;23;20021;-80
2021/12/11 05:30:40;;;;;;;38.15;18.92;;;-2.90;99.90;;;;;;6157552;23;20017;-79
2021/12/11 05:33:06;;;;;;;37.65;19.80;;;-2.90;99.90;;;;;;6158004;23;20025;-80
2021/12/11 05:35:34;;;;;;;38.60;20.00;;;-2.90;99.90;;;;;;6181811;23;20015;-80
2021/12/11 05:38:01;;;;;;;38.38;19.63;;;-2.90;99.90;;;;;;6182730;23;20693;-80
2021/12/11 05:40:30;;;;;;;34.42;19.35;;;-2.90;99.90;;;;;;6157873;23;20035;-80
2021/12/11 05:42:56;;;;;;;38.83;19.27;;;-3.00;99.90;;;;;;6181691;23;20355;-80
2021/12/11 05:45:23;;;;;;;35.78;18.75;;;-2.90;99.90;;;;;;6182394;23;20489;-80
2021/12/11 05:47:49;;;;;;;37.17;19.65;;;-3.00;99.90;;;;;;6182460;23;20023;-80
2021/12/11 05:50:29;;;;;;;38.85;19.45;;;-3.00;99.90;;;;;;6183465;23;20381;-80
2021/12/11 05:52:55;;;;;;;35.65;18.98;;;-3.10;99.90;;;;;;6181708;23;20041;-80
2021/12/11 05:55:23;;;;;;;39.43;20.90;;;-3.10;99.90;;;;;;6132572;23;20023;-80
2021/12/11 05:57:53;;;;;;;42.13;21.35;;;-3.10;99.90;;;;;;6157178;23;20024;-79
2021/12/11 06:00:27;;;;;;;39.40;20.48;;;-3.10;99.90;;;;;;6133210;23;20013;-79
2021/12/11 06:02:53;;;;;;;46.60;23.17;;;-3.10;99.90;;;;;;6180967;23;20013;-79
2021/12/11 06:05:19;;;;;;;43.60;21.90;;;-3.10;99.90;;;;;;6156988;23;20100;-79
2021/12/11 06:07:45;;;;;;;42.17;22.23;;;-3.10;99.90;;;;;;6132786;23;20096;-79
2021/12/11 06:10:15;;;;;;;36.70;19.77;;;-3.10;99.90;;;;;;6156659;23;20071;-79
2021/12/11 06:12:42;;;;;;;47.30;21.15;;;-3.10;99.90;;;;;;6181074;23;20353;-79
2021/12/11 06:15:09;;;;;;;47.90;22.55;;;-3.00;99.90;;;;;;6131584;23;20017;-79
2021/12/11 06:17:35;;;;;;;50.45;23.92;;;-3.10;99.90;;;;;;6156838;23;20592;-79
2021/12/11 06:20:04;;;;;;;97.05;26.40;;;-3.10;99.90;;;;;;6157075;23;20045;-80
2021/12/11 06:22:33;;;;;;;87.35;25.33;;;-3.10;99.90;;;;;;6181500;23;20017;-80
2021/12/11 06:25:04;;;;;;;80.88;24.77;;;-2.90;99.90;;;;;;6181185;23;20013;-79
2021/12/11 06:27:30;;;;;;;76.88;24.63;;;-3.00;99.90;;;;;;6156699;23;20696;-79
2021/12/11 06:29:57;;;;;;;69.85;24.45;;;-3.00;99.90;;;;;;6181840;23;20016;-79
2021/12/11 06:32:24;;;;;;;65.88;26.25;;;-3.00;99.90;;;;;;6181417;23;20096;-79
2021/12/11 06:34:54;;;;;;;44.17;22.08;;;-3.00;99.90;;;;;;6157290;23;20048;-79
2021/12/11 06:37:21;;;;;;;53.35;24.20;;;-3.00;99.90;;;;;;6182157;23;20020;-79
2021/12/11 06:39:49;;;;;;;39.85;21.60;;;-3.10;99.90;;;;;;6181495;23;20039;-79
2021/12/11 06:42:17;;;;;;;38.40;21.17;;;-3.10;99.90;;;;;;6181339;23;20020;-79
2021/12/11 06:44:44;;;;;;;40.22;20.50;;;-3.10;99.90;;;;;;6180210;23;20017;-79
2021/12/11 06:47:11;;;;;;;36.55;20.05;;;-3.10;99.90;;;;;;6181224;23;20398;-79
2021/12/11 06:49:38;;;;;;;41.88;22.00;;;-3.10;99.90;;;;;;6181697;23;20021;-79
2021/12/11 06:52:08;;;;;;;42.22;21.35;;;-3.10;99.90;;;;;;6181364;23;20736;-79
2021/12/11 06:54:34;;;;;;;41.85;22.00;;;-3.00;99.90;;;;;;6180252;23;20093;-79
2021/12/11 06:57:00;;;;;;;51.90;25.23;;;-3.00;99.90;;;;;;6157061;23;20064;-79
2021/12/11 06:59:26;;;;;;;45.63;23.70;;;-3.00;99.90;;;;;;6181087;23;20017;-79
2021/12/11 07:01:52;;;;;;;50.60;25.88;;;-2.90;99.90;;;;;;6131426;23;20175;-79
2021/12/11 07:04:18;;;;;;;54.33;24.38;;;-2.90;99.90;;;;;;6179526;23;20341;-79
2021/12/11 07:06:50;;;;;;;61.57;25.63;;;-2.80;99.90;;;;;;6131952;23;20021;-80
2021/12/11 07:09:17;;;;;;;75.85;26.17;;;-2.70;99.90;;;;;;6155188;23;20025;-80
2021/12/11 07:11:45;;;;;;;85.30;30.38;;;-2.60;99.90;;;;;;6181513;23;20088;-80
2021/12/11 07:14:13;;;;;;;85.45;28.45;;;-2.60;99.90;;;;;;6154774;23;20023;-80
2021/12/11 07:16:39;;;;;;;90.13;28.67;;;-2.50;99.90;;;;;;6181201;23;20058;-80
2021/12/11 07:19:06;;;;;;;76.80;30.73;;;-2.50;99.90;;;;;;6155935;23;20096;-80
2021/12/11 07:21:32;;;;;;;121.90;36.03;;;-2.40;99.90;;;;;;6131788;23;20009;-80
2021/12/11 07:23:59;;;;;;;99.38;34.85;;;-2.40;99.90;;;;;;6132323;23;20044;-80
2021/12/11 07:26:31;;;;;;;177.43;52.85;;;-2.40;99.90;;;;;;6180409;23;20638;-80
2021/12/11 07:29:01;;;;;;;111.18;36.30;;;-2.40;99.90;;;;;;6180104;23;20521;-80
2021/12/11 07:31:27;;;;;;;407.95;68.88;;;-2.40;99.90;;;;;;6155332;23;20017;-80
2021/12/11 07:33:53;;;;;;;121.70;33.78;;;-2.40;99.90;;;;;;6155023;23;20104;-81
2021/12/11 07:36:20;;;;;;;279.57;45.50;;;-2.30;99.90;;;;;;6156223;23;20044;-80
2021/12/11 07:38:46;;;;;;;198.18;35.80;;;-2.30;99.90;;;;;;6131732;23;20009;-80
2021/12/11 07:41:13;;;;;;;133.23;33.57;;;-2.30;99.90;;;;;;6179692;23;20016;-80
2021/12/11 07:43:41;;;;;;;446.40;54.08;;;-2.30;99.90;;;;;;6178618;23;20020;-80
2021/12/11 07:46:09;;;;;;;130.70;30.83;;;-2.30;99.90;;;;;;6154320;23;20028;-80
2021/12/11 07:48:35;;;;;;;380.95;57.33;;;-2.30;99.90;;;;;;6181860;23;20028;-80
2021/12/11 07:51:04;;;;;;;104.40;29.95;;;-2.30;99.90;;;;;;6131709;23;20013;-80
2021/12/11 07:53:30;;;;;;;74.30;26.10;;;-2.30;99.90;;;;;;6181159;23;20024;-80
2021/12/11 07:55:56;;;;;;;81.85;30.80;;;-2.30;99.90;;;;;;6155427;23;20017;-80
2021/12/11 07:58:22;;;;;;;70.50;27.13;;;-2.30;99.90;;;;;;6181287;23;20079;-80
2021/12/11 08:00:49;;;;;;;152.48;34.80;;;-2.30;99.90;;;;;;6181599;23;20005;-80
2021/12/11 08:03:17;;;;;;;214.85;39.28;;;-2.30;99.90;;;;;;6180995;23;20028;-80
2021/12/11 08:05:45;;;;;;;81.90;28.90;;;-2.30;99.90;;;;;;6181501;23;20740;-80
2021/12/11 08:08:11;;;;;;;69.47;27.10;;;-2.30;99.90;;;;;;6181648;23;20081;-80
2021/12/11 08:10:42;;;;;;;66.35;26.55;;;-2.30;99.90;;;;;;6157057;23;20057;-80
2021/12/11 08:13:09;;;;;;;142.45;36.30;;;-2.30;99.90;;;;;;6157231;23;20020;-80
2021/12/11 08:15:36;;;;;;;75.45;27.52;;;-2.20;99.90;;;;;;6131943;23;20104;-80
2021/12/11 08:18:07;;;;;;;145.30;34.70;;;-2.20;99.90;;;;;;6181569;23;20013;-80
2021/12/11 08:20:35;;;;;;;148.55;34.45;;;-2.20;99.90;;;;;;6133173;23;20393;-80
2021/12/11 08:23:01;;;;;;;166.23;37.80;;;-2.20;99.90;;;;;;6132391;23;20021;-80
2021/12/11 08:25:30;;;;;;;105.07;33.33;;;-2.10;99.90;;;;;;6180789;23;20020;-80
2021/12/11 08:27:56;;;;;;;89.95;32.08;;;-2.10;99.90;;;;;;6180915;23;20371;-80
2021/12/11 08:30:24;;;;;;;74.75;31.67;;;-2.00;99.90;;;;;;6181797;23;20323;-80
2021/12/11 08:32:50;;;;;;;92.82;35.38;;;-2.00;99.90;;;;;;6181251;23;20234;-80
2021/12/11 08:35:16;;;;;;;52.33;27.13;;;-2.00;99.90;;;;;;6130911;23;20016;-81
2021/12/11 08:37:45;;;;;;;118.65;38.00;;;-1.90;99.90;;;;;;6181221;23;20074;-81
2021/12/11 08:40:14;;;;;;;55.00;25.75;;;-1.90;99.90;;;;;;6180625;23;20036;-81
2021/12/11 08:42:40;;;;;;;72.43;32.33;;;-1.80;99.90;;;;;;6181007;23;20013;-80
2021/12/11 08:45:11;;;;;;;77.75;33.38;;;-1.80;99.90;;;;;;6179542;23;20427;-81
2021/12/11 08:47:40;;;;;;;89.13;35.95;;;-1.70;99.90;;;;;;6181469;23;20013;-81
2021/12/11 08:50:10;;;;;;;60.80;28.30;;;-1.60;99.90;;;;;;6156429;23;20361;-80
2021/12/11 08:52:41;;;;;;;62.50;29.25;;;-1.60;99.90;;;;;;6158468;23;20083;-80
2021/12/11 08:55:12;;;;;;;69.40;30.33;;;-1.60;99.90;;;;;;6157104;23;20059;-81
2021/12/11 08:57:40;;;;;;;76.85;31.73;;;-1.50;99.90;;;;;;6157552;23;20040;-81
2021/12/11 09:00:19;;;;;;;64.38;28.90;;;-1.40;99.90;;;;;;6133549;23;20012;-81
2021/12/11 09:02:50;;;;;;;66.35;29.10;;;-1.40;99.90;;;;;;6159365;23;20055;-81
2021/12/11 09:05:23;;;;;;;58.92;27.88;;;-1.30;99.90;;;;;;6156837;23;20346;-81
2021/12/11 09:07:54;;;;;;;57.17;28.95;;;-1.30;99.90;;;;;;6183386;23;20013;-80
2021/12/11 09:10:32;;;;;;;65.28;30.08;;;-1.20;99.90;;;;;;6155940;23;20013;-80
2021/12/11 09:13:10;;;;;;;89.63;35.10;;;-1.20;99.90;;;;;;6155890;23;20027;-79
2021/12/11 09:15:48;;;;;;;62.95;28.60;;;-1.10;99.90;;;;;;6179724;23;20517;-80
2021/12/11 09:18:25;;;;;;;65.25;31.10;;;-1.10;99.90;;;;;;6123799;23;20021;-80
2021/12/11 09:21:21;;;;;;;75.07;31.20;;;-1.00;99.90;;;;;;6155870;23;20009;-80
2021/12/11 09:24:07;;;;;;;62.15;29.80;;;-1.00;99.90;;;;;;6181024;23;20567;-80
2021/12/11 09:26:38;;;;;;;;;;;-1.00;99.90;;;;;;6181229;23;20017;-80
2021/12/11 09:29:17;;;;;;;66.07;28.38;;;-0.90;99.90;;;;;;6180738;23;19911;-79
2021/12/11 09:31:56;;;;;;;75.55;32.22;;;-0.80;99.90;;;;;;6179679;23;20350;-80
2021/12/11 09:34:27;;;;;;;57.25;28.10;;;-0.80;99.90;;;;;;6153740;23;20020;-79
2021/12/11 09:36:57;;;;;;;97.97;35.38;;;-0.70;99.90;;;;;;6179853;23;20036;-79
2021/12/11 09:39:31;;;;;;;61.35;30.27;;;-0.70;99.90;;;;;;6180579;23;20009;-80
2021/12/11 09:41:57;;;;;;;80.35;32.88;;;-0.60;99.90;;;;;;6155830;23;20028;-80
2021/12/11 09:44:29;;;;;;;103.63;33.57;;;-0.50;99.90;;;;;;6180162;23;20013;-81
2021/12/11 09:47:06;;;;;;;64.03;28.10;;;-0.40;99.90;;;;;;6156664;23;20017;-80
2021/12/11 09:49:47;;;;;;;77.35;30.15;;;-0.40;99.90;;;;;;6180347;23;20013;-80
2021/12/11 09:52:23;;;;;;;74.85;30.75;;;-0.40;99.90;;;;;;6180329;23;20013;-80
2021/12/11 09:55:14;;;;;;;71.97;30.75;;;-0.40;99.90;;;;;;6180389;23;20461;-80
2021/12/11 09:57:46;;;;;;;65.18;29.88;;;-0.40;99.90;;;;;;6180217;23;20017;-80
2021/12/11 10:00:23;;;;;;;68.35;30.17;;;-0.30;99.90;;;;;;6180208;23;20013;-80
2021/12/11 10:02:49;;;;;;;64.60;29.58;;;-0.30;99.90;;;;;;6179585;23;20077;-80
2021/12/11 10:05:29;;;;;;;75.45;31.85;;;-0.30;99.90;;;;;;6178436;23;20016;-80
2021/12/11 10:11:01;;;;;;;64.60;29.98;;;-0.10;99.90;;;;;;6156819;23;20028;-81
2021/12/11 10:13:29;;;;;;;69.75;29.92;;;-0.10;99.90;;;;;;6153735;23;20017;-80
2021/12/11 10:15:55;;;;;;;79.45;33.67;;;0.00;99.90;;;;;;6179234;23;20432;-80
2021/12/11 10:18:24;;;;;;;76.72;34.20;;;0.00;99.90;;;;;;6180651;23;20470;-80
2021/12/11 10:20:58;;;;;;;64.63;30.50;;;0.10;99.90;;;;;;6155928;23;20009;-80
2021/12/11 10:23:28;;;;;;;70.13;33.47;;;0.20;99.90;;;;;;6179859;23;20027;-81
2021/12/11 10:25:55;;;;;;;66.85;32.03;;;0.20;99.90;;;;;;6178883;23;20020;-81
2021/12/11 10:28:23;;;;;;;77.00;34.22;;;0.30;99.90;;;;;;6130106;23;20024;-81
2021/12/11 10:30:59;;;;;;;66.88;31.75;;;0.40;99.90;;;;;;6130538;23;20440;-82
2021/12/11 10:33:28;;;;;;;56.15;29.30;;;0.40;99.90;;;;;;6181319;23;20021;-82
2021/12/11 10:35:57;;;;;;;56.78;30.00;;;0.40;99.90;;;;;;6181450;23;20024;-82
2021/12/11 10:38:24;;;;;;;64.32;30.33;;;0.50;99.90;;;;;;6157942;23;20016;-82
2021/12/11 10:40:54;;;;;;;59.08;30.45;;;0.50;99.90;;;;;;6183727;23;20071;-83
2021/12/11 10:43:28;;;;;;;50.92;27.88;;;0.60;99.90;;;;;;6183737;23;20021;-83
2021/12/11 10:45:55;;;;;;;62.58;28.98;;;0.60;99.90;;;;;;6158241;23;20024;-83
2021/12/11 10:48:27;;;;;;;55.78;26.67;;;0.60;99.90;;;;;;6159650;23;20053;-83
2021/12/11 10:50:58;;;;;;;52.03;27.52;;;0.60;99.90;;;;;;6185168;23;20021;-83
2021/12/11 10:53:27;;;;;;;59.53;29.77;;;0.70;99.90;;;;;;6158186;23;20018;-83
2021/12/11 10:55:56;;;;;;;61.67;29.17;;;0.70;99.90;;;;;;6182875;23;20017;-83
2021/12/11 10:58:26;;;;;;;50.85;27.05;;;0.80;99.90;;;;;;6183630;23;20044;-83
2021/12/11 11:01:11;;;;;;;63.60;28.60;;;0.90;99.90;;;;;;6184184;23;20071;-83
2021/12/11 11:03:39;;;;;;;;;;;0.90;99.90;;;;;;6185267;23;20458;-83
2021/12/11 11:06:06;;;;;;;56.03;27.50;;;1.00;99.90;;;;;;6209324;23;19948;-84
2021/12/11 11:08:32;;;;;;;58.53;29.52;;;1.10;99.90;;;;;;6184654;23;20028;-84
2021/12/11 11:11:05;;;;;;;58.67;27.97;;;1.20;99.90;;;;;;6183822;23;20012;-84
2021/12/11 11:13:31;;;;;;;59.03;28.77;;;1.20;99.90;;;;;;6158020;23;20067;-84
2021/12/11 11:15:57;;;;;;;58.28;30.10;;;1.30;99.90;;;;;;6181866;23;20481;-84
2021/12/11 11:18:25;;;;;;;63.00;29.30;;;1.40;99.90;;;;;;6181882;23;20013;-84
2021/12/11 11:21:02;;;;;;;75.47;31.75;;;1.50;99.90;;;;;;6185203;23;20017;-84
2021/12/11 11:23:28;;;;;;;65.15;30.65;;;1.60;99.90;;;;;;6182966;23;20029;-84
2021/12/11 11:25:57;;;;;;;58.15;30.35;;;1.70;99.90;;;;;;6157751;23;20051;-84
2021/12/11 11:28:26;;;;;;;64.30;30.63;;;1.80;99.90;;;;;;6181974;23;20013;-84
2021/12/11 11:30:56;;;;;;;69.13;31.70;;;2.00;99.90;;;;;;6182703;23;20017;-84
2021/12/11 11:33:25;;;;;;;63.00;30.33;;;2.10;99.90;;;;;;6183240;23;20067;-84
2021/12/11 11:35:52;;;;;;;68.00;30.73;;;2.20;99.90;;;;;;6183063;23;20016;-84
2021/12/11 11:38:23;;;;;;;62.85;30.30;;;2.30;99.90;;;;;;6183976;23;20009;-84
2021/12/11 11:40:54;;;;;;;61.75;31.00;;;2.30;99.90;;;;;;6183625;23;20052;-84
2021/12/11 11:43:20;;;;;;;57.95;30.75;;;2.30;99.90;;;;;;6182476;23;20020;-84
2021/12/11 11:45:52;;;;;;;70.97;33.03;;;2.50;99.90;;;;;;6182429;23;20509;-84
2021/12/11 11:48:20;;;;;;;62.50;30.85;;;2.40;99.90;;;;;;6160390;23;20024;-84
2021/12/11 11:50:48;;;;;;;63.70;30.80;;;2.40;99.90;;;;;;6184195;23;20017;-84
2021/12/11 11:53:14;;;;;;;72.65;32.15;;;2.50;99.90;;;;;;6183288;23;20013;-84
2021/12/11 11:55:48;;;;;;;65.87;33.53;;;2.70;99.90;;;;;;6179918;23;20013;-84
2021/12/11 11:58:15;;;;;;;79.25;34.58;;;2.70;99.90;;;;;;6155235;23;20274;-84
2021/12/11 12:00:53;;;;;;;72.18;33.47;;;2.90;99.90;;;;;;6132979;23;20013;-84
2021/12/11 12:03:22;;;;;;;84.72;36.45;;;3.10;99.90;;;;;;6156190;23;20017;-84
2021/12/11 12:05:54;;;;;;;82.55;37.72;;;3.30;99.90;;;;;;6181180;23;20021;-84
2021/12/11 12:08:20;;;;;;;77.80;34.45;;;3.50;99.90;;;;;;6156423;23;21368;-84
2021/12/11 12:10:48;;;;;;;67.78;32.83;;;3.80;99.90;;;;;;6158184;23;20048;-84
2021/12/11 12:13:17;;;;;;;74.05;32.25;;;3.90;99.90;;;;;;6181536;23;20021;-84
2021/12/11 12:15:49;;;;;;;64.18;31.63;;;3.90;99.90;;;;;;6181642;23;20016;-84
2021/12/11 12:18:17;;;;;;;61.85;29.45;;;3.90;99.90;;;;;;6181351;23;20106;-84
2021/12/11 12:20:44;;;;;;;59.83;29.17;;;3.90;99.90;;;;;;6158364;23;20020;-84
2021/12/11 12:23:11;;;;;;;56.72;28.88;;;3.80;99.90;;;;;;6183398;23;20651;-84
2021/12/11 12:25:39;;;;;;;57.22;27.17;;;3.90;99.90;;;;;;6159175;23;20044;-84
2021/12/11 12:28:05;;;;;;;54.30;27.10;;;3.90;99.90;;;;;;6186519;23;20024;-84
2021/12/11 12:30:47;;;;;;;54.60;26.43;;;3.80;99.90;;;;;;6186860;23;20021;-84
2021/12/11 12:33:15;;;;;;;54.85;27.20;;;3.80;99.90;;;;;;6160210;23;20514;-84
2021/12/11 12:35:41;;;;;;;51.83;26.10;;;3.70;99.90;;;;;;6135399;23;20013;-84
2021/12/11 12:38:10;;;;;;;51.63;26.15;;;3.70;99.90;;;;;;6185147;23;20314;-84
2021/12/11 12:40:42;;;;;;;46.22;23.55;;;3.80;99.90;;;;;;6185006;23;20074;-84
2021/12/11 12:43:31;;;;;;;47.35;24.30;;;3.80;99.90;;;;;;6160867;23;20048;-84
2021/12/11 12:45:57;;;;;;;48.72;24.33;;;3.90;99.90;;;;;;6160994;23;20024;-84
2021/12/11 12:48:24;;;;;;;53.40;25.73;;;3.90;99.90;;;;;;6136141;23;20438;-84
2021/12/11 12:51:00;;;;;;;48.47;25.20;;;3.90;99.90;;;;;;6160932;23;20345;-84
2021/12/11 12:53:34;;;;;;;45.88;22.38;;;4.00;99.90;;;;;;6185690;23;20021;-84
2021/12/11 12:56:07;;;;;;;42.78;21.60;;;4.00;99.90;;;;;;6184570;23;20013;-84
2021/12/11 12:58:40;;;;;;;46.67;22.73;;;4.10;99.90;;;;;;6159491;23;20016;-84
2021/12/11 13:01:18;;;;;;;46.78;22.52;;;4.30;99.90;;;;;;6158530;23;20041;-84
2021/12/11 13:03:46;;;;;;;43.22;21.98;;;4.40;99.90;;;;;;6184387;23;20013;-84
2021/12/11 13:06:17;;;;;;;46.00;22.05;;;4.40;99.90;;;;;;6157576;23;20029;-85